| time (UTC) | temp F | wind direction | speed MPH | gust MPH | rain 1hr in | rain 24hr in | rain mn in | humidity % | barometer mb |
| 20260906064536 | 65 | 134 | 0.0 | 0.0 | 0.00 | 0.03 | 0.00 | 58 | 1019.0 |
| 20260906063018 | 66 | 134 | 0.0 | 1.0 | 0.00 | 0.03 | 0.00 | 58 | 1019.1 |
| 20260906061526 | 66 | 134 | 0.0 | 0.0 | 0.00 | 0.03 | 0.00 | 58 | 1019.1 |
| 20260906060035 | 66 | 134 | 0.0 | 2.0 | 0.00 | 0.03 | 0.00 | 58 | 1019.0 |
| 20260906054533 | 66 | 134 | 1.0 | 3.0 | 0.00 | 0.03 | 0.00 | 58 | 1019.2 |
| 20260906053037 | 66 | 235 | 1.0 | 4.0 | 0.00 | 0.03 | 0.00 | 58 | 1019.3 |
| 20260906051520 | 67 | 210 | 0.0 | 0.0 | 0.00 | 0.03 | 0.00 | 58 | 1019.5 |
| 20260906050027 | 67 | 210 | 0.0 | 0.0 | 0.00 | 0.03 | 0.00 | 58 | 1019.7 |
| 20260906044529 | 67 | 210 | 0.0 | 3.0 | 0.00 | 0.03 | 0.00 | 59 | 1019.9 |
| 20260906043035 | 67 | 225 | 0.0 | 3.0 | 0.00 | 0.03 | 0.00 | 59 | 1019.8 |
| 20260906041536 | 68 | 225 | 0.0 | 0.0 | 0.00 | 0.03 | 0.00 | 61 | 1019.9 |
| 20260906040034 | 68 | 225 | 0.0 | 2.0 | 0.00 | 0.03 | 0.00 | 62 | 1019.9 |
| 20260906034532 | 68 | 225 | 0.0 | 0.0 | 0.00 | 0.03 | 0.03 | 62 | 1019.8 |
| 20260906033034 | 69 | 225 | 0.0 | 2.0 | 0.00 | 0.03 | 0.03 | 62 | 1020.0 |
| 20260906031602 | 69 | 229 | 0.0 | 3.0 | 0.00 | 0.03 | 0.03 | 63 | 1020.1 |
| 20260906030037 | 69 | 219 | 0.0 | 1.0 | 0.00 | 0.03 | 0.03 | 63 | 1019.9 |
| 20260906024528 | 70 | 219 | 0.0 | 2.0 | 0.00 | 0.03 | 0.03 | 64 | 1020.0 |
| 20260906023003 | 70 | 229 | 0.0 | 1.0 | 0.00 | 0.03 | 0.03 | 64 | 1019.7 |
| 20260906021510 | 70 | 229 | 0.0 | 5.0 | 0.00 | 0.03 | 0.03 | 65 | 1019.5 |
| 20260906020016 | 71 | 198 | 0.0 | 4.0 | 0.00 | 0.03 | 0.03 | 66 | 1019.1 |
| 20260906014525 | 71 | 203 | 0.0 | 4.0 | 0.00 | 0.03 | 0.03 | 65 | 1019.2 |
| 20260906013021 | 71 | 175 | 0.0 | 1.0 | 0.00 | 0.03 | 0.03 | 65 | 1019.1 |
| 20260906011508 | 72 | 175 | 0.0 | 5.0 | 0.00 | 0.03 | 0.03 | 64 | 1018.9 |
| 20260906010016 | 72 | 213 | 1.0 | 10.0 | 0.00 | 0.03 | 0.03 | 64 | 1019.0 |
| 20260906004520 | 72 | 253 | 1.0 | 5.0 | 0.00 | 0.03 | 0.03 | 64 | 1019.1 |
| 20260906003025 | 73 | 215 | 0.0 | 8.0 | 0.00 | 0.03 | 0.03 | 63 | 1019.0 |
| 20260906001524 | 73 | 216 | 0.0 | 5.0 | 0.00 | 0.03 | 0.03 | 62 | 1018.7 |
| 20260906000011 | 74 | 227 | 1.0 | 5.0 | 0.00 | 0.03 | 0.03 | 60 | 1018.8 |
| 20260905234513 | 76 | 234 | 0.0 | 6.0 | 0.00 | 0.03 | 0.03 | 58 | 1018.7 |
| 20260905233022 | 77 | 223 | 0.0 | 1.0 | 0.00 | 0.03 | 0.03 | 57 | 1018.8 |
| 20260905231533 | 79 | 227 | 0.0 | 4.0 | 0.00 | 0.03 | 0.03 | 56 | 1018.3 |
| 20260905230024 | 80 | 227 | 0.0 | 2.0 | 0.00 | 0.03 | 0.03 | 56 | 1018.3 |
| 20260905224512 | 80 | 232 | 3.0 | 5.0 | 0.00 | 0.03 | 0.03 | 54 | 1018.4 |
| 20260905223015 | 81 | 236 | 2.0 | 5.0 | 0.00 | 0.03 | 0.03 | 53 | 1018.4 |
| 20260905221526 | 82 | 237 | 0.0 | 0.0 | 0.00 | 0.03 | 0.03 | 54 | 1018.5 |
| 20260905220030 | 82 | 256 | 0.0 | 3.0 | 0.00 | 0.03 | 0.03 | 55 | 1018.5 |
| 20260905214526 | 81 | 257 | 0.0 | 2.0 | 0.00 | 0.03 | 0.03 | 54 | 1018.6 |
| 20260905213015 | 80 | 273 | 1.0 | 6.0 | 0.00 | 0.03 | 0.03 | 55 | 1018.7 |
| 20260905211519 | 79 | 275 | 2.0 | 5.0 | 0.00 | 0.03 | 0.03 | 57 | 1019.0 |
| 20260905210027 | 78 | 281 | 1.0 | 5.0 | 0.00 | 0.03 | 0.03 | 58 | 1019.2 |
| 20260905204526 | 77 | 192 | 2.0 | 6.0 | 0.00 | 0.03 | 0.03 | 59 | 1019.5 |
| 20260905203028 | 76 | 263 | 0.0 | 1.0 | 0.00 | 0.03 | 0.03 | 61 | 1019.5 |
| 20260905201516 | 75 | 60 | 0.0 | 2.0 | 0.00 | 0.03 | 0.03 | 62 | 1020.0 |
| 20260905200023 | 74 | 63 | 0.0 | 3.0 | 0.00 | 0.03 | 0.03 | 63 | 1020.0 |
| 20260905194527 | 74 | 104 | 0.0 | 4.0 | 0.00 | 0.03 | 0.03 | 62 | 1020.4 |
| 20260905193037 | 75 | 139 | 0.0 | 0.0 | 0.00 | 0.03 | 0.03 | 60 | 1020.1 |
| 20260905191531 | 75 | 139 | 0.0 | 2.0 | 0.01 | 0.03 | 0.03 | 60 | 1020.0 |
| 20260905190028 | 75 | 75 | 0.0 | 4.0 | 0.01 | 0.03 | 0.03 | 58 | 1020.2 |
| 20260905184532 | 76 | 84 | 0.0 | 5.0 | 0.01 | 0.03 | 0.03 | 61 | 1020.4 |
| 20260905183028 | 76 | 246 | 1.0 | 7.0 | 0.01 | 0.03 | 0.03 | 60 | 1020.5 |
| 20260905181528 | 76 | 348 | 4.0 | 9.0 | 0.01 | 0.02 | 0.02 | 59 | 1020.9 |
| 20260905180047 | 74 | 173 | 4.0 | 11.0 | 0.02 | 0.02 | 0.02 | 61 | 1020.8 |
| 20260905174527 | 74 | 322 | 0.0 | 7.0 | 0.02 | 0.02 | 0.02 | 63 | 1020.9 |
| 20260905173028 | 75 | 223 | 0.0 | 9.0 | 0.02 | 0.02 | 0.02 | 61 | 1021.3 |
| 20260905171511 | 78 | 238 | 2.0 | 8.0 | 0.01 | 0.01 | 0.01 | 58 | 1021.2 |
| 20260905170014 | 82 | 5 | 3.0 | 11.0 | 0.00 | 0.00 | 0.00 | 54 | 1021.3 |
| 20260905164516 | 84 | 239 | 0.0 | 5.0 | 0.00 | 0.00 | 0.00 | 50 | 1020.6 |
| 20260905163023 | 84 | 62 | 0.0 | 1.0 | 0.00 | 0.00 | 0.00 | 48 | 1021.0 |
| 20260905161503 | 85 | 339 | 0.0 | 4.0 | 0.00 | 0.00 | 0.00 | 43 | 1021.2 |
| 20260905160010 | 85 | 320 | 0.0 | 0.0 | 0.00 | 0.00 | 0.00 | 43 | 1021.0 |
| 20260905154515 | 85 | 88 | 0.0 | 0.0 | 0.00 | 0.00 | 0.00 | 43 | 1021.0 |
| 20260905153022 | 83 | 42 | 0.0 | 0.0 | 0.00 | 0.00 | 0.00 | 43 | 1021.0 |
| 20260905151528 | 82 | 324 | 0.0 | 2.0 | 0.00 | 0.00 | 0.00 | 44 | 1021.0 |
| 20260905150007 | 81 | 28 | 0.0 | 0.0 | 0.00 | 0.00 | 0.00 | 47 | 1020.9 |
| 20260905144524 | 79 | 44 | 0.0 | 0.0 | 0.00 | 0.00 | 0.00 | 49 | 1021.1 |
| 20260905143017 | 77 | 45 | 0.0 | 0.0 | 0.00 | 0.00 | 0.00 | 51 | 1021.0 |
| 20260905141525 | 74 | 42 | 0.0 | 0.0 | 0.00 | 0.00 | 0.00 | 54 | 1021.4 |
| 20260905140029 | 71 | 42 | 0.0 | 0.0 | 0.00 | 0.00 | 0.00 | 59 | 1021.7 |
| 20260905134508 | 70 | 43 | 0.0 | 2.0 | 0.00 | 0.00 | 0.00 | 61 | 1021.8 |
| 20260905133020 | 68 | 130 | 0.0 | 1.0 | 0.00 | 0.00 | 0.00 | 63 | 1021.9 |
| 20260905131524 | 68 | 132 | 0.0 | 2.0 | 0.00 | 0.00 | 0.00 | 63 | 1022.0 |
| 20260905130025 | 67 | 132 | 0.0 | 2.0 | 0.00 | 0.00 | 0.00 | 63 | 1022.1 |
| 20260905124532 | 66 | 132 | 1.0 | 3.0 | 0.00 | 0.00 | 0.00 | 63 | 1022.2 |
| 20260905123009 | 65 | 132 | 0.0 | 0.0 | 0.00 | 0.00 | 0.00 | 63 | 1022.1 |
| 20260905121517 | 64 | 132 | 0.0 | 1.0 | 0.00 | 0.00 | 0.00 | 61 | 1021.9 |
| 20260905120036 | 64 | 132 | 0.0 | 0.0 | 0.00 | 0.00 | 0.00 | 61 | 1021.7 |
| 20260905114528 | 64 | 132 | 0.0 | 0.0 | 0.00 | 0.00 | 0.00 | 60 | 1021.7 |
| 20260905113032 | 64 | 132 | 0.0 | 0.0 | 0.00 | 0.00 | 0.00 | 59 | 1021.5 |
| 20260905111516 | 64 | 132 | 0.0 | 0.0 | 0.00 | 0.00 | 0.00 | 59 | 1021.3 |
| 20260905110024 | 64 | 132 | 0.0 | 1.0 | 0.00 | 0.00 | 0.00 | 59 | 1021.0 |
| 20260905104528 | 64 | 132 | 0.0 | 0.0 | 0.00 | 0.00 | 0.00 | 58 | 1020.8 |
| 20260905103035 | 64 | 132 | 0.0 | 0.0 | 0.00 | 0.00 | 0.00 | 58 | 1020.7 |
| 20260905101532 | 64 | 132 | 0.0 | 1.0 | 0.00 | 0.00 | 0.00 | 58 | 1020.6 |
| 20260905100019 | 65 | 132 | 0.0 | 0.0 | 0.00 | 0.00 | 0.00 | 58 | 1020.7 |
| 20260905094523 | 65 | 132 | 0.0 | 1.0 | 0.00 | 0.00 | 0.00 | 57 | 1020.8 |
| 20260905093036 | 65 | 132 | 0.0 | 0.0 | 0.00 | 0.00 | 0.00 | 57 | 1020.6 |
| 20260905091532 | 65 | 132 | 0.0 | 0.0 | 0.00 | 0.00 | 0.00 | 56 | 1020.8 |
| 20260905090033 | 65 | 132 | 0.0 | 1.0 | 0.00 | 0.00 | 0.00 | 56 | 1020.8 |
| 20260905084519 | 66 | 132 | 0.0 | 0.0 | 0.00 | 0.00 | 0.00 | 57 | 1021.0 |
| 20260905083026 | 66 | 132 | 0.0 | 1.0 | 0.00 | 0.00 | 0.00 | 57 | 1021.0 |
| 20260905081530 | 66 | 132 | 0.0 | 1.0 | 0.00 | 0.00 | 0.00 | 57 | 1021.1 |
| 20260905080035 | 66 | 132 | 0.0 | 1.0 | 0.00 | 0.00 | 0.00 | 58 | 1021.3 |
| 20260905074532 | 67 | 132 | 0.0 | 0.0 | 0.00 | 0.00 | 0.00 | 58 | 1021.3 |
| 20260905073029 | 67 | 132 | 0.0 | 1.0 | 0.00 | 0.00 | 0.00 | 58 | 1021.4 |
| 20260905071530 | 67 | 132 | 0.0 | 0.0 | 0.00 | 0.00 | 0.00 | 58 | 1021.4 |
| 20260905070046 | 67 | 132 | 0.0 | 2.0 | 0.00 | 0.00 | 0.00 | 58 | 1021.5 |